createdAt,value
2022-10-25T00:02:30.894Z,13.23
2022-10-25T00:04:57.669Z,12.07
2022-10-25T00:07:24.450Z,12.88
2022-10-25T00:09:51.189Z,12.50
2022-10-25T00:12:18.112Z,11.90
2022-10-25T00:14:44.907Z,11.75
2022-10-25T00:17:11.648Z,11.03
2022-10-25T00:19:38.397Z,10.57
2022-10-25T00:22:05.150Z,11.35
2022-10-25T00:24:31.953Z,10.20
2022-10-25T00:26:58.696Z,9.98
2022-10-25T00:29:25.472Z,10.47
2022-10-25T00:31:52.209Z,11.00
2022-10-25T00:34:18.950Z,10.20
2022-10-25T00:36:45.693Z,10.50
2022-10-25T00:39:12.450Z,9.98
2022-10-25T00:41:39.272Z,9.67
2022-10-25T00:44:36.996Z,10.23
2022-10-25T00:47:07.312Z,9.63
2022-10-25T00:49:34.092Z,9.55
2022-10-25T00:52:02.311Z,9.35
2022-10-25T00:54:35.590Z,10.33
2022-10-25T00:57:06.328Z,9.77
2022-10-25T00:59:33.069Z,9.40
2022-10-25T01:01:59.895Z,9.98
2022-10-25T01:04:28.170Z,9.32
2022-10-25T01:06:55.113Z,9.20
2022-10-25T01:09:26.849Z,9.82
2022-10-25T01:11:53.653Z,10.10
2022-10-25T01:14:20.590Z,10.82
2022-10-25T01:16:53.188Z,10.55
2022-10-25T01:19:31.650Z,10.07
2022-10-25T01:22:08.729Z,9.60
2022-10-25T01:25:04.572Z,10.13
2022-10-25T01:30:23.438Z,10.27
2022-10-25T01:33:15.990Z,9.57
2022-10-25T01:35:54.951Z,10.20
2022-10-25T01:38:30.052Z,9.75
2022-10-25T01:41:28.729Z,10.32
2022-10-25T01:44:33.030Z,10.15
2022-10-25T01:47:23.460Z,9.17
2022-10-25T01:50:09.110Z,9.80
2022-10-25T01:52:35.911Z,9.27
2022-10-25T01:55:02.693Z,9.55
2022-10-25T01:57:41.736Z,9.70
2022-10-25T02:00:15.110Z,8.67
2022-10-25T02:03:21.012Z,9.13
2022-10-25T02:06:13.690Z,8.65
2022-10-25T02:08:47.539Z,8.00
2022-10-25T02:11:30.550Z,9.13
2022-10-25T02:14:06.268Z,8.73
2022-10-25T02:16:40.612Z,8.95
2022-10-25T02:19:08.570Z,8.35
2022-10-25T02:21:35.851Z,8.05
2022-10-25T02:24:07.011Z,8.60
2022-10-25T02:26:34.294Z,8.23
2022-10-25T02:29:01.253Z,8.50
2022-10-25T02:31:28.070Z,8.88
2022-10-25T02:33:54.836Z,8.55
2022-10-25T02:36:23.129Z,8.73
2022-10-25T02:38:50.969Z,8.80
2022-10-25T02:41:18.551Z,9.05
2022-10-25T02:43:45.349Z,8.73
2022-10-25T02:46:14.030Z,9.05
2022-10-25T02:48:40.988Z,9.63
2022-10-25T02:51:07.994Z,9.17
2022-10-25T02:53:34.910Z,8.73
2022-10-25T02:56:06.370Z,9.50
2022-10-25T02:58:35.608Z,9.68
2022-10-25T03:01:02.549Z,8.38
2022-10-25T03:03:29.688Z,9.37
2022-10-25T03:05:56.729Z,9.10
2022-10-25T03:08:23.934Z,9.35
2022-10-25T03:10:50.911Z,8.73
2022-10-25T03:13:17.729Z,9.20
2022-10-25T03:15:44.990Z,9.33
2022-10-25T03:18:12.410Z,8.27
2022-10-25T03:20:39.192Z,8.65
2022-10-25T03:23:06.050Z,9.05
2022-10-25T03:25:32.870Z,9.20
2022-10-25T03:28:02.259Z,8.80
2022-10-25T03:30:29.750Z,8.90
2022-10-25T03:32:56.971Z,9.05
2022-10-25T03:35:23.852Z,9.20
2022-10-25T03:37:51.050Z,8.95
2022-10-25T03:40:18.370Z,8.93
2022-10-25T03:42:45.132Z,9.13
2022-10-25T03:45:12.150Z,8.70
2022-10-25T03:47:39.333Z,8.43
2022-10-25T03:50:06.851Z,8.02
2022-10-25T03:52:33.631Z,8.33
2022-10-25T03:55:00.472Z,7.93
2022-10-25T03:57:27.268Z,8.10
2022-10-25T03:59:54.149Z,8.13
2022-10-25T04:02:20.907Z,8.15
2022-10-25T04:04:47.681Z,8.40
2022-10-25T04:07:14.430Z,8.65
2022-10-25T04:09:41.250Z,9.60
2022-10-25T04:12:08.080Z,8.70
2022-10-25T04:14:34.827Z,8.65
2022-10-25T04:17:01.572Z,8.73
2022-10-25T04:19:28.311Z,8.48
2022-10-25T04:21:55.109Z,8.52
2022-10-25T04:24:22.908Z,8.40
2022-10-25T04:26:49.731Z,8.10
2022-10-25T04:29:17.532Z,7.33
2022-10-25T04:31:44.289Z,8.40
2022-10-25T04:34:11.069Z,7.90
2022-10-25T04:36:39.160Z,7.93
2022-10-25T04:39:05.949Z,7.80
2022-10-25T04:41:32.690Z,7.63
2022-10-25T04:43:59.452Z,8.27
2022-10-25T04:46:26.256Z,7.97
2022-10-25T04:48:53.069Z,8.05
2022-10-25T04:51:19.831Z,8.38
2022-10-25T04:53:46.588Z,7.70
2022-10-25T04:56:14.535Z,8.55
2022-10-25T04:58:41.333Z,7.95
2022-10-25T05:01:10.762Z,8.43
2022-10-25T05:03:37.531Z,8.45
2022-10-25T05:06:14.188Z,8.60
2022-10-25T05:08:47.709Z,8.45
2022-10-25T05:11:15.437Z,8.38
2022-10-25T05:13:42.451Z,8.02
2022-10-25T05:16:11.351Z,8.13
2022-10-25T05:18:38.188Z,8.27
2022-10-25T05:21:05.832Z,8.50
2022-10-25T05:23:33.549Z,8.38
2022-10-25T05:26:02.253Z,8.52
2022-10-25T05:28:29.072Z,9.68
2022-10-25T05:30:55.836Z,8.87
2022-10-25T05:33:22.616Z,8.38
2022-10-25T05:35:49.354Z,8.43
2022-10-25T05:38:16.108Z,8.68
2022-10-25T05:40:42.851Z,8.68
2022-10-25T05:43:09.613Z,8.27
2022-10-25T05:45:36.370Z,8.20
2022-10-25T05:48:03.171Z,9.05
2022-10-25T05:50:30.011Z,8.75
2022-10-25T05:52:56.748Z,8.63
2022-10-25T05:55:23.531Z,8.57
2022-10-25T05:57:51.851Z,8.60
2022-10-25T06:00:18.692Z,8.75
2022-10-25T06:02:45.952Z,9.40
2022-10-25T06:05:12.893Z,10.20
2022-10-25T06:07:39.770Z,10.30
2022-10-25T06:10:10.380Z,10.20
2022-10-25T06:12:37.588Z,10.40
2022-10-25T06:15:04.689Z,10.50
2022-10-25T06:17:31.468Z,10.63
2022-10-25T06:19:58.249Z,10.77
2022-10-25T06:22:24.969Z,10.30
2022-10-25T06:24:51.974Z,11.02
2022-10-25T06:27:19.068Z,9.43
2022-10-25T06:29:45.830Z,10.02
2022-10-25T06:32:12.591Z,9.57
2022-10-25T06:34:39.369Z,10.15
2022-10-25T06:37:06.088Z,11.27
2022-10-25T06:39:32.829Z,11.82
2022-10-25T06:41:59.611Z,12.98
2022-10-25T06:44:26.371Z,12.77
2022-10-25T06:47:15.755Z,13.70
2022-10-25T06:49:40.329Z,12.45
2022-10-25T06:52:07.082Z,12.35
2022-10-25T06:54:33.911Z,11.90
2022-10-25T06:57:00.691Z,11.03
2022-10-25T06:59:27.494Z,11.07
2022-10-25T07:01:55.489Z,10.77
2022-10-25T07:04:22.390Z,10.48
2022-10-25T07:06:51.502Z,10.30
2022-10-25T07:09:21.209Z,10.67
2022-10-25T07:11:48.169Z,9.27
2022-10-25T07:14:14.929Z,9.00
2022-10-25T07:16:41.714Z,8.35
2022-10-25T07:19:08.573Z,8.95
2022-10-25T07:21:35.450Z,8.27
2022-10-25T07:24:02.410Z,7.90
2022-10-25T07:26:33.671Z,7.72
2022-10-25T07:29:01.191Z,7.68
2022-10-25T07:31:29.851Z,7.85
2022-10-25T07:33:58.299Z,6.67
2022-10-25T07:36:25.073Z,7.10
2022-10-25T07:38:51.849Z,6.47
2022-10-25T07:41:18.711Z,6.97
2022-10-25T07:43:45.327Z,6.30
2022-10-25T07:46:12.034Z,6.40
2022-10-25T07:48:38.736Z,6.43
2022-10-25T07:51:06.549Z,5.57
2022-10-25T07:53:33.396Z,5.88
2022-10-25T07:56:00.227Z,6.13
2022-10-25T07:58:26.995Z,5.97
2022-10-25T08:00:53.772Z,5.70
2022-10-25T08:03:20.658Z,6.05
2022-10-25T08:05:47.954Z,5.07
2022-10-25T08:08:14.973Z,4.85
2022-10-25T08:10:42.579Z,5.00
2022-10-25T08:13:09.337Z,4.50
2022-10-25T08:15:36.499Z,4.75
2022-10-25T08:18:03.967Z,4.40
2022-10-25T08:20:49.654Z,4.53
2022-10-25T08:23:17.369Z,4.00
2022-10-25T08:25:44.233Z,4.55
2022-10-25T08:28:10.968Z,4.25
2022-10-25T08:30:37.792Z,3.88
2022-10-25T08:33:06.484Z,4.13
2022-10-25T08:35:36.135Z,3.97
2022-10-25T08:38:03.654Z,4.03
2022-10-25T08:40:57.369Z,3.88
2022-10-25T08:44:03.216Z,3.75
2022-10-25T08:47:04.916Z,3.70
2022-10-25T08:49:53.012Z,3.40
2022-10-25T08:52:40.149Z,3.90
2022-10-25T08:55:15.191Z,3.67
2022-10-25T08:57:46.882Z,3.47
2022-10-25T09:00:22.673Z,3.25
2022-10-25T09:02:55.351Z,3.23
2022-10-25T09:05:38.792Z,3.38
2022-10-25T09:08:42.808Z,3.50
2022-10-25T09:11:17.753Z,3.25
2022-10-25T09:13:51.450Z,3.33
2022-10-25T09:16:37.512Z,3.70
2022-10-25T09:19:04.330Z,3.22
2022-10-25T09:22:04.237Z,3.63
2022-10-25T09:24:54.088Z,3.42
2022-10-25T09:28:00.252Z,3.13
2022-10-25T09:30:28.095Z,3.17
2022-10-25T09:33:02.638Z,2.92
2022-10-25T09:35:48.687Z,3.63
2022-10-25T09:38:19.769Z,3.38
2022-10-25T09:40:48.272Z,3.92
2022-10-25T09:43:18.814Z,3.57
2022-10-25T09:45:48.311Z,4.75
2022-10-25T09:48:43.908Z,7.80
2022-10-25T09:51:13.249Z,8.90
2022-10-25T09:53:40.750Z,7.85
2022-10-25T09:56:07.548Z,5.37
2022-10-25T09:58:41.589Z,4.40
2022-10-25T10:01:20.366Z,3.95
2022-10-25T10:03:50.848Z,3.60
2022-10-25T10:06:31.329Z,3.60
2022-10-25T10:09:17.069Z,3.47
2022-10-25T10:11:44.651Z,3.80
2022-10-25T10:14:14.970Z,3.40
2022-10-25T10:16:46.714Z,3.47
2022-10-25T10:19:21.278Z,3.25
2022-10-25T10:21:58.313Z,3.00
2022-10-25T10:24:31.630Z,2.95
2022-10-25T10:27:03.089Z,3.72
2022-10-25T10:29:31.493Z,3.55
2022-10-25T10:32:00.092Z,4.07
2022-10-25T10:34:29.650Z,3.90
2022-10-25T10:37:21.291Z,3.88
2022-10-25T10:40:08.276Z,4.18
2022-10-25T10:42:36.508Z,4.60
2022-10-25T10:45:09.101Z,4.78
2022-10-25T10:47:55.971Z,4.87
2022-10-25T10:50:22.823Z,4.78
2022-10-25T10:53:23.114Z,4.50
2022-10-25T10:55:50.970Z,6.20
2022-10-25T10:58:32.101Z,5.68
2022-10-25T11:01:12.858Z,4.70
2022-10-25T11:03:49.239Z,5.28
2022-10-25T11:06:31.532Z,5.05
2022-10-25T11:09:20.350Z,4.15
2022-10-25T11:12:05.595Z,4.50
2022-10-25T11:14:32.470Z,3.67
2022-10-25T11:17:28.870Z,3.10
2022-10-25T11:20:19.509Z,3.20
2022-10-25T11:23:07.929Z,3.03
2022-10-25T11:25:54.847Z,3.22
2022-10-25T11:28:46.875Z,2.90
2022-10-25T11:31:47.749Z,3.63
2022-10-25T11:34:14.438Z,2.58
2022-10-25T11:37:10.373Z,3.00
2022-10-25T11:40:14.351Z,3.55
2022-10-25T11:43:03.832Z,3.03
2022-10-25T11:45:51.147Z,3.08
2022-10-25T11:48:49.475Z,3.05
2022-10-25T11:51:39.451Z,3.42
2022-10-25T11:54:14.690Z,2.97
2022-10-25T11:57:02.913Z,2.40
2022-10-25T11:59:35.852Z,2.10
2022-10-25T12:02:27.186Z,2.80
2022-10-25T12:05:31.069Z,2.58
2022-10-25T12:08:07.670Z,2.75
2022-10-25T12:10:48.534Z,2.43
2022-10-25T12:13:17.277Z,2.35
2022-10-25T12:15:48.949Z,2.33
2022-10-25T12:18:22.593Z,2.25
2022-10-25T12:20:52.009Z,2.30
2022-10-25T12:23:21.490Z,2.40
2022-10-25T12:25:50.690Z,2.60
2022-10-25T12:28:39.093Z,2.70
2022-10-25T12:31:15.790Z,2.85
2022-10-25T12:34:12.530Z,2.80
2022-10-25T12:36:41.011Z,2.40
2022-10-25T12:39:23.911Z,2.30
2022-10-25T12:41:53.413Z,2.33
2022-10-25T12:44:43.210Z,2.65
2022-10-25T12:47:18.991Z,2.72
2022-10-25T12:49:54.106Z,2.73
2022-10-25T12:52:35.309Z,2.90
2022-10-25T12:55:39.571Z,2.83
2022-10-25T12:58:35.592Z,2.83
2022-10-25T13:01:10.253Z,3.10
2022-10-25T13:03:58.751Z,2.63
2022-10-25T13:06:33.308Z,2.63
2022-10-25T13:09:08.107Z,2.88
2022-10-25T13:11:39.471Z,2.85
2022-10-25T13:14:25.469Z,3.17
2022-10-25T13:16:52.292Z,2.47
2022-10-25T13:19:57.731Z,2.92
2022-10-25T13:22:12.294Z,2.60
2022-10-25T13:24:43.052Z,3.08
2022-10-25T13:27:12.775Z,3.10
2022-10-25T13:29:49.773Z,3.27
2022-10-25T13:32:18.992Z,2.88
2022-10-25T13:34:46.199Z,3.00
2022-10-25T13:37:31.613Z,2.88
2022-10-25T13:39:59.270Z,2.50
2022-10-25T13:42:37.573Z,2.60
2022-10-25T13:45:04.329Z,2.50
2022-10-25T13:47:47.792Z,2.95
2022-10-25T13:50:36.337Z,3.38
2022-10-25T13:53:37.773Z,2.72
2022-10-25T13:56:23.331Z,2.83
2022-10-25T13:58:53.931Z,2.85
2022-10-25T14:01:25.053Z,2.97
2022-10-25T14:04:11.091Z,3.20
2022-10-25T14:06:41.772Z,2.80
2022-10-25T14:09:34.446Z,3.30
2022-10-25T14:12:01.168Z,2.80
2022-10-25T14:14:54.870Z,3.30
2022-10-25T14:17:40.210Z,3.30
2022-10-25T14:20:22.185Z,3.40
2022-10-25T14:23:07.750Z,3.20
2022-10-25T14:25:35.660Z,3.00
2022-10-25T14:28:25.190Z,3.70
2022-10-25T14:31:02.355Z,3.25
2022-10-25T14:33:47.653Z,3.45
2022-10-25T14:36:33.495Z,3.57
2022-10-25T14:39:24.175Z,3.65
2022-10-25T14:41:58.611Z,3.50
2022-10-25T14:44:28.090Z,3.72
2022-10-25T14:46:58.828Z,3.65
2022-10-25T14:49:26.212Z,3.43
2022-10-25T14:51:54.847Z,3.67
2022-10-25T14:54:40.061Z,3.70
2022-10-25T14:57:07.291Z,3.83
2022-10-25T14:59:42.525Z,4.10
2022-10-25T15:02:23.482Z,4.00
2022-10-25T15:04:51.366Z,4.18
2022-10-25T15:07:33.816Z,4.40
2022-10-25T15:10:01.642Z,4.18
2022-10-25T15:12:32.476Z,4.07
2022-10-25T15:15:19.810Z,3.70
2022-10-25T15:17:53.850Z,3.55
2022-10-25T15:20:20.531Z,3.95
2022-10-25T15:22:49.333Z,4.18
2022-10-25T15:25:22.570Z,3.90
2022-10-25T15:27:54.638Z,3.57
2022-10-25T15:30:43.995Z,3.75
2022-10-25T15:33:37.630Z,4.40
2022-10-25T15:36:05.337Z,4.35
2022-10-25T15:38:54.485Z,4.53
2022-10-25T15:41:20.873Z,4.80
2022-10-25T15:43:47.702Z,4.25
2022-10-25T15:46:34.498Z,4.70
2022-10-25T15:49:03.831Z,4.60
2022-10-25T15:51:32.400Z,4.88
2022-10-25T15:53:59.211Z,4.87
2022-10-25T15:56:26.051Z,4.60
2022-10-25T15:58:52.791Z,5.18
2022-10-25T16:01:19.665Z,4.75
2022-10-25T16:03:46.569Z,5.20
2022-10-25T16:06:14.224Z,5.10
2022-10-25T16:08:41.871Z,5.20
2022-10-25T16:11:16.532Z,4.93
2022-10-25T16:13:43.579Z,4.55
2022-10-25T16:16:40.470Z,5.60
2022-10-25T16:19:15.930Z,5.43
2022-10-25T16:21:43.120Z,5.60
2022-10-25T16:24:10.691Z,5.30
2022-10-25T16:26:43.079Z,5.28
2022-10-25T16:29:22.958Z,5.40
2022-10-25T16:31:50.190Z,5.53
2022-10-25T16:34:17.930Z,6.00
2022-10-25T16:36:45.280Z,6.00
2022-10-25T16:39:12.289Z,5.82
2022-10-25T16:41:40.152Z,5.60
2022-10-25T16:44:06.953Z,5.40
2022-10-25T16:46:33.709Z,5.88
2022-10-25T16:49:02.156Z,6.50
2022-10-25T16:51:29.209Z,6.35
2022-10-25T16:53:57.433Z,6.43
2022-10-25T16:56:24.218Z,7.20
2022-10-25T16:58:51.118Z,7.13
2022-10-25T17:01:34.590Z,7.22
2022-10-25T17:04:02.170Z,7.18
2022-10-25T17:06:41.211Z,7.18
2022-10-25T17:09:08.877Z,7.30
2022-10-25T17:11:36.437Z,8.20
2022-10-25T17:14:03.668Z,7.28
2022-10-25T17:16:30.414Z,7.90
2022-10-25T17:18:57.409Z,7.85
2022-10-25T17:21:24.240Z,8.17
2022-10-25T17:23:51.000Z,8.82
2022-10-25T17:26:17.813Z,8.68
2022-10-25T17:28:44.869Z,8.73
2022-10-25T17:31:13.259Z,8.45
2022-10-25T17:33:40.750Z,8.10
2022-10-25T17:36:12.471Z,8.55
2022-10-25T17:38:39.377Z,8.20
2022-10-25T17:41:06.291Z,8.82
2022-10-25T17:43:35.178Z,8.90
2022-10-25T17:46:03.053Z,9.10
2022-10-25T17:48:30.032Z,9.07
2022-10-25T17:51:07.212Z,9.10
2022-10-25T17:53:34.098Z,9.43
2022-10-25T17:56:14.215Z,9.23
2022-10-25T17:58:44.934Z,9.50
2022-10-25T18:01:15.703Z,9.35
2022-10-25T18:03:42.559Z,9.32
2022-10-25T18:06:11.615Z,9.25
2022-10-25T18:08:38.635Z,9.02
2022-10-25T18:11:12.498Z,8.90
2022-10-25T18:13:40.870Z,9.60
2022-10-25T18:16:08.591Z,8.98
2022-10-25T18:18:35.350Z,8.98
2022-10-25T18:21:10.369Z,9.27
2022-10-25T18:23:37.173Z,8.97
2022-10-25T18:26:04.614Z,8.85
2022-10-25T18:28:34.508Z,8.65
2022-10-25T18:31:08.732Z,8.85
2022-10-25T18:33:37.258Z,8.48
2022-10-25T18:36:08.528Z,8.73
2022-10-25T18:38:35.329Z,8.30
2022-10-25T18:41:09.312Z,8.48
2022-10-25T18:43:36.174Z,8.60
2022-10-25T18:46:02.940Z,8.30
2022-10-25T18:48:29.701Z,8.23
2022-10-25T18:50:56.530Z,8.55
2022-10-25T18:53:23.289Z,8.45
2022-10-25T18:55:53.253Z,8.30
2022-10-25T18:58:20.031Z,8.55
2022-10-25T19:00:47.011Z,7.77
2022-10-25T19:03:14.653Z,7.72
2022-10-25T19:05:41.428Z,7.78
2022-10-25T19:08:08.831Z,7.90
2022-10-25T19:10:39.371Z,7.68
2022-10-25T19:13:06.551Z,8.10
2022-10-25T19:15:33.796Z,7.60
2022-10-25T19:18:00.691Z,7.65
2022-10-25T19:20:27.475Z,8.35
2022-10-25T19:22:58.774Z,7.10
2022-10-25T19:25:29.705Z,7.27
2022-10-25T19:27:56.951Z,7.78
2022-10-25T19:30:23.789Z,7.50
2022-10-25T19:32:50.650Z,7.43
2022-10-25T19:35:17.499Z,7.57
2022-10-25T19:37:44.338Z,7.93
2022-10-25T19:40:11.590Z,7.53
2022-10-25T19:42:38.530Z,7.95
2022-10-25T19:45:05.732Z,7.80
2022-10-25T19:47:34.075Z,7.47
2022-10-25T19:50:01.475Z,7.63
2022-10-25T19:52:28.370Z,7.93
2022-10-25T19:54:55.169Z,7.65
2022-10-25T19:57:21.930Z,8.20
2022-10-25T19:59:48.774Z,7.07
2022-10-25T20:02:15.607Z,7.67
2022-10-25T20:04:42.499Z,7.78
2022-10-25T20:07:09.250Z,7.70
2022-10-25T20:09:36.096Z,8.30
2022-10-25T20:12:02.891Z,7.57
2022-10-25T20:14:30.954Z,7.27
2022-10-25T20:16:57.793Z,8.65
2022-10-25T20:19:24.977Z,8.10
2022-10-25T20:21:51.732Z,8.32
2022-10-25T20:24:18.521Z,8.13
2022-10-25T20:26:49.707Z,7.73
2022-10-25T20:29:21.083Z,8.02
2022-10-25T20:31:48.741Z,8.20
2022-10-25T20:34:15.679Z,7.90
2022-10-25T20:36:42.435Z,8.30
2022-10-25T20:39:10.931Z,7.67
2022-10-25T20:41:37.872Z,7.68
2022-10-25T20:44:05.768Z,7.65
2022-10-25T20:46:33.265Z,7.45
2022-10-25T20:49:00.408Z,8.18
2022-10-25T20:51:27.188Z,7.63
2022-10-25T20:53:53.951Z,7.60
2022-10-25T20:56:21.242Z,8.07
2022-10-25T20:58:48.059Z,8.40
2022-10-25T21:01:14.868Z,7.72
2022-10-25T21:03:41.822Z,8.37
2022-10-25T21:06:10.555Z,7.97
2022-10-25T21:08:37.450Z,7.75
2022-10-25T21:11:05.728Z,7.82
2022-10-25T21:13:33.633Z,7.72
2022-10-25T21:16:05.522Z,7.37
2022-10-25T21:18:32.232Z,7.75
2022-10-25T21:21:02.973Z,7.22
2022-10-25T21:23:31.119Z,7.07
2022-10-25T21:26:01.837Z,7.38
2022-10-25T21:28:31.809Z,6.60
2022-10-25T21:31:02.694Z,6.38
2022-10-25T21:33:29.412Z,6.47
2022-10-25T21:36:01.410Z,6.07
2022-10-25T21:38:28.191Z,6.78
2022-10-25T21:40:54.938Z,6.53
2022-10-25T21:43:23.200Z,6.03
2022-10-25T21:45:50.088Z,6.63
2022-10-25T21:48:16.799Z,6.13
2022-10-25T21:50:43.541Z,5.72
2022-10-25T21:53:10.253Z,5.83
2022-10-25T21:55:36.970Z,6.13
2022-10-25T21:58:03.680Z,5.78
2022-10-25T22:00:30.428Z,6.05
2022-10-25T22:02:57.150Z,6.32
2022-10-25T22:05:23.886Z,6.03
2022-10-25T22:07:50.938Z,5.63
2022-10-25T22:10:17.819Z,5.60
2022-10-25T22:12:44.561Z,6.15
2022-10-25T22:15:11.251Z,6.68
2022-10-25T22:17:38.025Z,5.83
2022-10-25T22:20:05.259Z,6.00
2022-10-25T22:22:31.980Z,5.70
2022-10-25T22:24:58.721Z,6.05
2022-10-25T22:27:25.429Z,6.32
2022-10-25T22:29:52.107Z,6.03
2022-10-25T22:32:18.857Z,6.25
2022-10-25T22:34:45.585Z,6.60
2022-10-25T22:37:12.318Z,6.35
2022-10-25T22:39:39.147Z,5.95
2022-10-25T22:42:11.687Z,6.00
2022-10-25T22:44:39.376Z,5.35
2022-10-25T22:47:06.103Z,5.25
2022-10-25T22:49:33.045Z,5.60
2022-10-25T22:51:59.776Z,5.22
2022-10-25T22:54:26.670Z,5.70
2022-10-25T22:56:53.425Z,5.60
2022-10-25T22:59:47.462Z,6.45
2022-10-25T23:02:14.216Z,6.35
2022-10-25T23:04:40.897Z,6.07
2022-10-25T23:07:07.596Z,6.30
2022-10-25T23:09:34.406Z,6.10
2022-10-25T23:12:01.146Z,6.15
2022-10-25T23:14:27.894Z,6.25
2022-10-25T23:16:54.616Z,6.35
2022-10-25T23:19:21.335Z,5.63
2022-10-25T23:21:48.363Z,5.65
2022-10-25T23:24:15.085Z,5.72
2022-10-25T23:26:41.793Z,6.55
2022-10-25T23:29:11.097Z,6.55
2022-10-25T23:31:37.895Z,6.90
2022-10-25T23:34:04.635Z,6.28
2022-10-25T23:36:37.791Z,6.07
2022-10-25T23:39:05.645Z,6.00
2022-10-25T23:41:32.355Z,6.07
2022-10-25T23:43:59.136Z,5.10
2022-10-25T23:46:25.887Z,5.55
2022-10-25T23:48:52.625Z,5.43
2022-10-25T23:51:19.406Z,5.68
2022-10-25T23:53:46.228Z,5.15
2022-10-25T23:56:13.481Z,5.20
2022-10-25T23:58:40.789Z,5.00
